createdAt,value
2018-09-24T00:01:11.475Z,11.60
2018-09-24T00:03:39.206Z,11.57
2018-09-24T00:06:08.104Z,11.44
2018-09-24T00:08:35.850Z,11.17
2018-09-24T00:11:04.756Z,11.04
2018-09-24T00:13:33.070Z,10.99
2018-09-24T00:16:00.825Z,10.99
2018-09-24T00:18:29.716Z,11.00
2018-09-24T00:20:58.035Z,10.97
2018-09-24T00:23:25.772Z,10.96
2018-09-24T00:25:54.674Z,10.99
2018-09-24T00:28:22.988Z,11.00
2018-09-24T00:30:50.740Z,10.96
2018-09-24T00:33:19.064Z,10.97
2018-09-24T00:35:47.382Z,10.93
2018-09-24T00:38:16.301Z,10.97
2018-09-24T00:40:44.630Z,10.99
2018-09-24T00:43:12.423Z,11.02
2018-09-24T00:45:41.276Z,11.11
2018-09-24T00:48:09.017Z,11.20
2018-09-24T00:50:37.917Z,11.05
2018-09-24T00:53:06.244Z,10.99
2018-09-24T00:55:34.552Z,11.07
2018-09-24T00:58:02.869Z,11.17
2018-09-24T01:00:31.194Z,11.22
2018-09-24T01:02:59.565Z,11.11
2018-09-24T01:05:27.829Z,10.98
2018-09-24T01:07:56.142Z,10.92
2018-09-24T01:10:23.882Z,10.85
2018-09-24T01:12:52.790Z,10.73
2018-09-24T01:15:21.113Z,10.64
2018-09-24T01:17:49.430Z,10.52
2018-09-24T01:20:17.181Z,10.48
2018-09-24T01:22:45.491Z,10.28
2018-09-24T01:25:14.391Z,10.11
2018-09-24T01:27:42.699Z,10.12
2018-09-24T01:30:11.041Z,10.08
2018-09-24T01:32:39.353Z,10.14
2018-09-24T01:35:07.084Z,10.17
2018-09-24T01:37:35.998Z,10.21
2018-09-24T01:40:04.307Z,10.20
2018-09-24T01:42:32.626Z,10.15
2018-09-24T01:45:00.940Z,10.19
2018-09-24T01:47:28.681Z,10.18
2018-09-24T01:49:56.996Z,10.16
2018-09-24T01:52:25.897Z,10.24
2018-09-24T01:54:54.217Z,10.26
2018-09-24T01:57:22.549Z,10.30
2018-09-24T01:59:50.857Z,10.29
2018-09-24T02:02:18.590Z,10.31
2018-09-24T02:04:47.481Z,10.24
2018-09-24T02:07:15.800Z,10.22
2018-09-24T02:09:44.121Z,10.21
2018-09-24T02:12:12.434Z,10.26
2018-09-24T02:14:40.755Z,10.28
2018-09-24T02:17:08.488Z,10.21
2018-09-24T02:19:37.723Z,10.22
2018-09-24T02:22:05.470Z,10.25
2018-09-24T02:24:33.786Z,10.23
2018-09-24T02:27:02.680Z,10.23
2018-09-24T02:29:31.032Z,10.23
2018-09-24T02:31:58.778Z,10.25
2018-09-24T02:34:27.086Z,10.21
2018-09-24T02:36:55.989Z,10.23
2018-09-24T02:39:24.297Z,10.24
2018-09-24T02:41:52.652Z,10.22
2018-09-24T02:44:20.970Z,10.15
2018-09-24T02:46:48.707Z,10.16
2018-09-24T02:49:17.616Z,10.10
2018-09-24T02:51:45.928Z,10.09
2018-09-24T02:54:14.246Z,10.09
2018-09-24T02:56:42.564Z,10.05
2018-09-24T02:59:10.880Z,10.05
2018-09-24T03:01:39.201Z,10.01
2018-09-24T03:04:07.368Z,10.00
2018-09-24T03:06:35.253Z,9.98
2018-09-24T03:09:04.149Z,9.97
2018-09-24T03:11:31.870Z,9.95
2018-09-24T03:14:00.761Z,9.96
2018-09-24T03:16:28.491Z,9.93
2018-09-24T03:18:57.376Z,9.88
2018-09-24T03:21:25.102Z,9.88
2018-09-24T03:23:53.993Z,9.78
2018-09-24T03:26:21.733Z,9.75
2018-09-24T03:28:50.626Z,9.83
2018-09-24T03:31:18.354Z,9.89
2018-09-24T03:33:46.841Z,9.90
2018-09-24T03:36:15.572Z,9.94
2018-09-24T03:38:43.887Z,9.97
2018-09-24T03:41:11.629Z,9.99
2018-09-24T03:43:40.536Z,9.95
2018-09-24T03:46:08.868Z,9.90
2018-09-24T03:48:37.184Z,9.92
2018-09-24T03:51:05.487Z,9.90
2018-09-24T03:53:33.224Z,9.85
2018-09-24T03:56:01.555Z,9.85
2018-09-24T03:58:29.874Z,9.84
2018-09-24T04:00:58.202Z,9.82
2018-09-24T04:03:27.095Z,9.79
2018-09-24T04:06:00.548Z,9.80
2018-09-24T04:08:34.417Z,9.77
2018-09-24T04:11:08.413Z,9.76
2018-09-24T04:13:42.818Z,9.79
2018-09-24T04:16:16.139Z,9.82
2018-09-24T04:18:50.243Z,9.77
2018-09-24T04:21:24.736Z,9.76
2018-09-24T04:23:58.048Z,9.76
2018-09-24T04:26:32.943Z,9.76
2018-09-24T04:29:06.701Z,9.75
2018-09-24T04:31:41.059Z,9.80
2018-09-24T04:34:15.071Z,9.81
2018-09-24T04:36:49.032Z,9.83
2018-09-24T04:39:23.171Z,9.82
2018-09-24T04:41:56.983Z,9.86
2018-09-24T04:44:30.364Z,9.91
2018-09-24T04:47:04.366Z,9.96
2018-09-24T04:49:38.896Z,9.94
2018-09-24T04:52:12.845Z,9.97
2018-09-24T04:54:46.121Z,10.01
2018-09-24T04:57:21.106Z,10.03
2018-09-24T04:59:54.353Z,10.04
2018-09-24T05:02:28.974Z,10.06
2018-09-24T05:05:02.828Z,10.08
2018-09-24T05:07:36.736Z,10.05
2018-09-24T05:10:10.576Z,9.97
2018-09-24T05:12:44.525Z,9.95
2018-09-24T05:15:18.449Z,9.97
2018-09-24T05:17:52.556Z,9.95
2018-09-24T05:20:25.859Z,9.95
2018-09-24T05:23:00.758Z,9.93
2018-09-24T05:25:34.032Z,9.94
2018-09-24T05:28:08.811Z,9.97
2018-09-24T05:30:42.602Z,9.99
2018-09-24T05:33:16.459Z,10.09
2018-09-24T05:35:50.399Z,10.14
2018-09-24T05:38:23.794Z,10.25
2018-09-24T05:40:57.767Z,10.33
2018-09-24T05:43:32.134Z,10.41
2018-09-24T05:46:06.133Z,10.52
2018-09-24T05:48:39.457Z,10.58
2018-09-24T05:51:14.035Z,10.56
2018-09-24T05:53:47.358Z,10.61
2018-09-24T05:56:21.370Z,10.64
2018-09-24T05:58:56.062Z,10.70
2018-09-24T06:01:29.364Z,10.79
2018-09-24T06:04:03.826Z,10.88
2018-09-24T06:06:37.102Z,10.96
2018-09-24T06:09:11.671Z,11.01
2018-09-24T06:11:45.471Z,11.07
2018-09-24T06:14:18.770Z,11.16
2018-09-24T06:16:53.232Z,11.16
2018-09-24T06:19:27.138Z,11.26
2018-09-24T06:22:00.968Z,11.26
2018-09-24T06:24:34.282Z,11.37
2018-09-24T06:27:08.682Z,11.50
2018-09-24T06:29:42.222Z,11.58
2018-09-24T06:32:16.090Z,11.60
2018-09-24T06:34:52.146Z,11.74
2018-09-24T06:37:24.692Z,11.84
2018-09-24T06:39:57.978Z,11.85
2018-09-24T06:42:31.843Z,11.88
2018-09-24T06:45:06.692Z,11.97
2018-09-24T06:47:40.084Z,12.11
2018-09-24T06:50:14.093Z,12.22
2018-09-24T06:52:48.708Z,12.28
2018-09-24T06:55:22.952Z,12.32
2018-09-24T06:57:56.235Z,12.40
2018-09-24T07:00:30.462Z,12.52
2018-09-24T07:03:04.934Z,12.53
2018-09-24T07:05:39.023Z,12.64
2018-09-24T07:08:13.612Z,12.69
2018-09-24T07:10:46.610Z,12.74
2018-09-24T07:13:20.947Z,12.75
2018-09-24T07:15:55.160Z,12.93
2018-09-24T07:18:29.224Z,13.32
2018-09-24T07:21:03.167Z,13.29
2018-09-24T07:23:36.402Z,13.24
2018-09-24T07:26:11.080Z,13.39
2018-09-24T07:28:44.729Z,13.53
2018-09-24T07:31:18.131Z,13.54
2018-09-24T07:33:52.567Z,13.65
2018-09-24T07:36:26.587Z,13.79
2018-09-24T07:39:00.370Z,13.87
2018-09-24T07:41:34.305Z,13.97
2018-09-24T07:44:07.684Z,14.07
2018-09-24T07:46:41.675Z,14.23
2018-09-24T07:49:15.507Z,14.35
2018-09-24T07:51:50.074Z,14.52
2018-09-24T07:54:24.073Z,14.59
2018-09-24T07:56:57.591Z,14.49
2018-09-24T07:59:31.998Z,14.41
2018-09-24T08:02:05.347Z,14.34
2018-09-24T08:04:39.868Z,14.22
2018-09-24T08:07:14.815Z,14.16
2018-09-24T08:09:48.021Z,14.08
2018-09-24T08:12:21.945Z,14.06
2018-09-24T08:14:56.534Z,14.08
2018-09-24T08:17:30.381Z,14.16
2018-09-24T08:20:03.642Z,14.27
2018-09-24T08:22:38.252Z,14.28
2018-09-24T08:25:12.140Z,14.21
2018-09-24T08:27:46.102Z,14.17
2018-09-24T08:30:19.447Z,14.22
2018-09-24T08:32:53.838Z,14.19
2018-09-24T08:35:28.177Z,14.09
2018-09-24T08:38:02.483Z,14.03
2018-09-24T08:40:36.271Z,14.07
2018-09-24T08:43:10.155Z,14.13
2018-09-24T08:45:44.302Z,14.19
2018-09-24T08:48:17.928Z,14.21
2018-09-24T08:50:51.742Z,14.34
2018-09-24T08:53:26.362Z,14.50
2018-09-24T08:56:00.162Z,14.74
2018-09-24T08:58:34.294Z,14.80
2018-09-24T09:01:08.096Z,14.88
2018-09-24T09:03:42.255Z,14.92
2018-09-24T09:06:16.121Z,14.95
2018-09-24T09:08:50.182Z,14.98
2018-09-24T09:11:23.985Z,14.83
2018-09-24T09:13:57.909Z,14.69
2018-09-24T09:16:31.900Z,14.55
2018-09-24T09:19:06.126Z,14.41
2018-09-24T09:21:39.990Z,14.30
2018-09-24T09:24:13.899Z,14.17
2018-09-24T09:26:47.317Z,14.17
2018-09-24T09:29:21.741Z,14.28
2018-09-24T09:31:55.711Z,14.39
2018-09-24T09:34:29.924Z,14.58
2018-09-24T09:37:03.816Z,14.74
2018-09-24T09:39:38.000Z,14.80
2018-09-24T09:42:11.799Z,14.74
2018-09-24T09:44:45.196Z,14.78
2018-09-24T09:47:19.705Z,14.64
2018-09-24T09:49:52.985Z,14.63
2018-09-24T09:52:27.456Z,14.60
2018-09-24T09:55:01.828Z,14.60
2018-09-24T09:57:35.637Z,14.59
2018-09-24T10:00:09.007Z,14.74
2018-09-24T10:02:42.801Z,14.82
2018-09-24T10:05:17.567Z,14.81
2018-09-24T10:07:51.496Z,14.77
2018-09-24T10:10:25.971Z,14.67
2018-09-24T10:13:00.389Z,14.53
2018-09-24T10:15:33.740Z,14.44
2018-09-24T10:18:07.579Z,14.43
2018-09-24T10:20:42.031Z,14.36
2018-09-24T10:23:16.037Z,14.27
2018-09-24T10:25:50.039Z,14.25
2018-09-24T10:28:23.316Z,14.27
2018-09-24T10:30:57.972Z,14.29
2018-09-24T10:33:31.954Z,14.28
2018-09-24T10:36:05.795Z,14.28
2018-09-24T10:38:39.664Z,14.33
2018-09-24T10:41:13.562Z,14.36
2018-09-24T10:43:47.366Z,14.33
2018-09-24T10:46:21.335Z,14.26
2018-09-24T10:48:55.587Z,14.24
2018-09-24T10:51:29.591Z,14.30
2018-09-24T10:54:03.607Z,14.29
2018-09-24T10:56:37.485Z,14.37
2018-09-24T10:59:10.791Z,14.52
2018-09-24T11:01:44.687Z,14.68
2018-09-24T11:04:19.249Z,14.77
2018-09-24T11:06:53.122Z,14.75
2018-09-24T11:09:27.006Z,14.64
2018-09-24T11:12:00.952Z,14.55
2018-09-24T11:14:34.802Z,14.47
2018-09-24T11:17:09.075Z,14.34
2018-09-24T11:19:42.867Z,14.07
2018-09-24T11:22:16.787Z,13.64
2018-09-24T11:24:50.654Z,13.22
2018-09-24T11:27:24.517Z,12.82
2018-09-24T11:29:57.858Z,11.11
2018-09-24T11:32:31.817Z,10.20
2018-09-24T11:35:06.465Z,9.83
2018-09-24T11:37:40.556Z,9.68
2018-09-24T11:40:13.985Z,9.67
2018-09-24T11:42:48.877Z,9.57
2018-09-24T11:45:22.532Z,9.51
2018-09-24T11:47:56.567Z,9.51
2018-09-24T11:50:29.878Z,9.46
2018-09-24T11:53:03.939Z,9.52
2018-09-24T11:55:38.001Z,9.62
2018-09-24T11:58:12.449Z,9.69
2018-09-24T12:00:46.184Z,9.55
2018-09-24T12:03:19.462Z,9.55
2018-09-24T12:05:54.116Z,9.65
2018-09-24T12:08:28.405Z,9.97
2018-09-24T12:11:02.391Z,10.25
2018-09-24T12:13:36.264Z,10.58
2018-09-24T12:16:10.330Z,10.74
2018-09-24T12:18:43.673Z,10.82
2018-09-24T12:21:18.196Z,10.84
2018-09-24T12:23:51.616Z,10.90
2018-09-24T12:26:25.480Z,11.06
2018-09-24T12:28:59.532Z,11.21
2018-09-24T12:31:34.060Z,11.30
2018-09-24T12:34:08.292Z,11.41
2018-09-24T12:36:42.180Z,11.70
2018-09-24T12:39:15.525Z,11.73
2018-09-24T12:41:49.947Z,11.78
2018-09-24T12:44:23.305Z,11.79
2018-09-24T12:46:57.770Z,11.91
2018-09-24T12:49:31.687Z,12.29
2018-09-24T12:52:05.996Z,12.54
2018-09-24T12:54:39.282Z,12.89
2018-09-24T12:57:13.290Z,13.27
2018-09-24T12:59:47.231Z,13.46
2018-09-24T13:02:20.997Z,13.67
2018-09-24T13:04:55.660Z,13.91
2018-09-24T13:07:29.524Z,14.13
2018-09-24T13:10:03.878Z,14.22
2018-09-24T13:12:38.025Z,13.85
2018-09-24T13:15:12.299Z,13.39
2018-09-24T13:17:46.780Z,12.93
2018-09-24T13:20:20.223Z,12.80
2018-09-24T13:22:55.948Z,13.60
2018-09-24T13:25:28.937Z,13.88
2018-09-24T13:28:02.833Z,13.89
2018-09-24T13:30:36.876Z,14.36
2018-09-24T13:33:10.861Z,14.47
2018-09-24T13:35:45.610Z,14.33
2018-09-24T13:38:20.370Z,14.34
2018-09-24T13:40:53.811Z,14.19
2018-09-24T13:43:28.810Z,13.80
2018-09-24T13:46:01.621Z,13.58
2018-09-24T13:48:35.449Z,13.52
2018-09-24T13:51:09.430Z,13.95
2018-09-24T13:53:43.283Z,14.31
2018-09-24T13:56:17.156Z,15.44
2018-09-24T13:58:51.168Z,15.85
2018-09-24T14:01:24.994Z,16.06
2018-09-24T14:03:59.811Z,16.06
2018-09-24T14:06:33.082Z,15.43
2018-09-24T14:09:06.943Z,14.73
2018-09-24T14:11:41.033Z,14.06
2018-09-24T14:14:14.678Z,13.57
2018-09-24T14:16:48.646Z,13.29
2018-09-24T14:19:22.315Z,13.15
2018-09-24T14:21:56.873Z,14.71
2018-09-24T14:24:30.706Z,15.59
2018-09-24T14:27:04.794Z,15.78
2018-09-24T14:29:38.630Z,15.10
2018-09-24T14:32:12.589Z,14.58
2018-09-24T14:34:46.534Z,14.15
2018-09-24T14:37:20.389Z,15.05
2018-09-24T14:39:54.269Z,16.31
2018-09-24T14:42:28.120Z,15.60
2018-09-24T14:45:02.024Z,14.80
2018-09-24T14:47:35.892Z,14.19
2018-09-24T14:50:09.165Z,13.79
2018-09-24T14:52:43.666Z,13.52
2018-09-24T14:55:17.816Z,13.33
2018-09-24T14:57:52.104Z,13.21
2018-09-24T15:00:26.002Z,13.09
2018-09-24T15:02:59.475Z,12.99
2018-09-24T15:05:34.049Z,12.94
2018-09-24T15:08:08.107Z,12.83
2018-09-24T15:10:41.415Z,12.73
2018-09-24T15:13:15.326Z,12.67
2018-09-24T15:15:49.745Z,12.60
2018-09-24T15:18:24.772Z,12.57
2018-09-24T15:20:57.764Z,12.54
2018-09-24T15:23:32.404Z,12.46
2018-09-24T15:26:05.790Z,12.38
2018-09-24T15:28:39.899Z,12.35
2018-09-24T15:31:13.845Z,12.34
2018-09-24T15:33:48.745Z,12.30
2018-09-24T15:36:23.921Z,12.26
2018-09-24T15:38:56.588Z,12.19
2018-09-24T15:41:30.727Z,12.16
2018-09-24T15:44:04.947Z,12.14
2018-09-24T15:46:38.884Z,12.13
2018-09-24T15:49:12.771Z,12.10
2018-09-24T15:51:46.090Z,12.04
2018-09-24T15:54:19.950Z,11.99
2018-09-24T15:56:54.405Z,11.96
2018-09-24T15:59:28.540Z,11.91
2018-09-24T16:02:02.493Z,11.88
2018-09-24T16:04:36.399Z,11.85
2018-09-24T16:07:11.602Z,11.82
2018-09-24T16:09:45.570Z,11.80
2018-09-24T16:12:18.939Z,11.75
2018-09-24T16:14:53.382Z,11.72
2018-09-24T16:17:26.683Z,11.69
2018-09-24T16:20:00.566Z,11.66
2018-09-24T16:22:35.044Z,11.63
2018-09-24T16:25:08.903Z,11.63
2018-09-24T16:27:42.173Z,11.62
2018-09-24T16:30:16.078Z,11.61
2018-09-24T16:32:50.618Z,11.62
2018-09-24T16:35:24.443Z,11.61
2018-09-24T16:37:58.353Z,11.61
2018-09-24T16:40:32.432Z,11.61
2018-09-24T16:43:06.445Z,11.61
2018-09-24T16:45:40.589Z,11.46
2018-09-24T16:48:13.902Z,11.23
2018-09-24T16:50:48.345Z,11.17
2018-09-24T16:53:22.233Z,11.18
2018-09-24T16:55:56.113Z,11.22
2018-09-24T16:58:30.104Z,11.28
2018-09-24T17:01:04.038Z,11.32
2018-09-24T17:03:37.492Z,11.36
2018-09-24T17:06:11.405Z,11.33
2018-09-24T17:08:45.820Z,11.33
2018-09-24T17:11:19.719Z,11.26
2018-09-24T17:13:53.595Z,11.16
2018-09-24T17:16:27.653Z,11.04
2018-09-24T17:19:01.707Z,10.91
2018-09-24T17:21:36.258Z,10.73
2018-09-24T17:24:10.065Z,10.65
2018-09-24T17:26:44.025Z,10.62
2018-09-24T17:29:18.012Z,10.64
2018-09-24T17:31:52.036Z,10.61
2018-09-24T17:34:26.067Z,10.53
2018-09-24T17:36:59.415Z,10.47
2018-09-24T17:39:34.065Z,10.46
2018-09-24T17:42:07.972Z,10.52
2018-09-24T17:44:41.916Z,10.61
2018-09-24T17:47:15.864Z,10.72
2018-09-24T17:49:49.720Z,10.77
2018-09-24T17:52:24.982Z,10.82
2018-09-24T17:54:59.244Z,10.81
2018-09-24T17:57:33.465Z,10.78
2018-09-24T18:00:07.196Z,10.79
2018-09-24T18:02:42.262Z,10.58
2018-09-24T18:05:16.379Z,10.41
2018-09-24T18:07:50.846Z,10.41
2018-09-24T18:10:24.773Z,10.54
2018-09-24T18:15:43.669Z,10.77
2018-09-24T18:18:17.408Z,10.84
2018-09-24T18:20:51.407Z,10.89
2018-09-24T18:23:25.685Z,10.90
2018-09-24T18:25:59.952Z,10.92
2018-09-24T18:28:34.028Z,10.82
2018-09-24T18:31:08.077Z,10.54
2018-09-24T18:33:42.345Z,10.37
2018-09-24T18:36:16.012Z,10.41
2018-09-24T18:38:49.914Z,10.36
2018-09-24T18:41:24.290Z,10.11
2018-09-24T18:43:59.158Z,9.93
2018-09-24T18:46:33.786Z,9.73
2018-09-24T18:49:08.575Z,9.69
2018-09-24T18:51:43.699Z,9.59
2018-09-24T18:54:16.758Z,9.52
2018-09-24T18:56:50.723Z,8.79
2018-09-24T18:59:24.037Z,8.35
2018-09-24T19:01:58.543Z,8.12
2018-09-24T19:04:32.413Z,7.95
2018-09-24T19:07:06.512Z,7.86
2018-09-24T19:09:40.640Z,7.80
2018-09-24T19:12:13.990Z,7.79
2018-09-24T19:14:48.628Z,7.83
2018-09-24T19:17:22.635Z,7.83
2018-09-24T19:19:56.508Z,7.89
2018-09-24T19:22:30.484Z,7.97
2018-09-24T19:25:04.342Z,8.07
2018-09-24T19:27:37.898Z,8.09
2018-09-24T19:30:11.942Z,8.20
2018-09-24T19:32:46.384Z,8.27
2018-09-24T19:35:20.390Z,8.26
2018-09-24T19:37:54.292Z,8.29
2018-09-24T19:40:27.718Z,8.22
2018-09-24T19:43:02.324Z,8.21
2018-09-24T19:45:36.182Z,8.29
2018-09-24T19:48:10.359Z,8.31
2018-09-24T19:50:43.787Z,8.30
2018-09-24T19:53:17.748Z,8.21
2018-09-24T19:55:51.757Z,8.22
2018-09-24T19:58:25.715Z,8.26
2018-09-24T20:01:00.303Z,8.29
2018-09-24T20:03:34.189Z,8.36
2018-09-24T20:06:08.116Z,8.43
2018-09-24T20:08:41.561Z,8.46
2018-09-24T20:11:15.748Z,8.34
2018-09-24T20:13:50.285Z,8.30
2018-09-24T20:16:24.437Z,8.36
2018-09-24T20:18:58.449Z,8.44
2018-09-24T20:21:32.557Z,8.52
2018-09-24T20:24:06.622Z,8.57
2018-09-24T20:26:40.239Z,8.63
2018-09-24T20:29:14.216Z,8.61
2018-09-24T20:31:48.783Z,8.48
2018-09-24T20:34:22.876Z,8.30
2018-09-24T20:36:57.342Z,8.17
2018-09-24T20:39:31.388Z,8.13
2018-09-24T20:42:05.457Z,8.19
2018-09-24T20:44:39.478Z,8.24
2018-09-24T20:47:13.370Z,8.28
2018-09-24T20:49:47.460Z,8.28
2018-09-24T20:52:21.502Z,8.34
2018-09-24T20:54:55.527Z,8.37
2018-09-24T20:57:29.807Z,8.38
2018-09-24T21:00:03.600Z,8.30
2018-09-24T21:02:37.685Z,8.21
2018-09-24T21:05:11.059Z,8.36
2018-09-24T21:07:45.092Z,8.50
2018-09-24T21:10:19.679Z,8.65
2018-09-24T21:12:53.041Z,8.82
2018-09-24T21:15:27.027Z,8.94
2018-09-24T21:18:01.554Z,9.00
2018-09-24T21:20:35.412Z,9.03
2018-09-24T21:23:08.865Z,9.05
2018-09-24T21:25:42.757Z,9.09
2018-09-24T21:28:17.618Z,9.13
2018-09-24T21:30:50.860Z,9.13
2018-09-24T21:33:24.950Z,9.13
2018-09-24T21:35:59.515Z,9.12
2018-09-24T21:38:33.670Z,9.10
2018-09-24T21:41:07.625Z,9.07
2018-09-24T21:43:41.021Z,9.03
2018-09-24T21:46:15.161Z,8.98
2018-09-24T21:48:48.870Z,8.93
2018-09-24T21:51:23.473Z,8.89
2018-09-24T21:53:56.825Z,8.86
2018-09-24T21:56:30.607Z,8.80
2018-09-24T21:59:05.527Z,8.75
2018-09-24T22:01:40.227Z,8.74
2018-09-24T22:04:13.375Z,8.71
2018-09-24T22:06:47.332Z,8.66
2018-09-24T22:09:20.507Z,8.63
2018-09-24T22:11:55.126Z,8.60
2018-09-24T22:14:29.125Z,8.57
2018-09-24T22:17:03.136Z,8.54
2018-09-24T22:19:36.989Z,8.52
2018-09-24T22:22:10.365Z,8.50
2018-09-24T22:24:45.005Z,8.50
2018-09-24T22:27:18.843Z,8.50
2018-09-24T22:29:52.215Z,8.51
2018-09-24T22:32:26.566Z,8.51
2018-09-24T22:34:59.886Z,8.50
2018-09-24T22:37:34.273Z,8.49
2018-09-24T22:40:08.165Z,8.48
2018-09-24T22:42:41.545Z,8.48
2018-09-24T22:45:16.056Z,8.47
2018-09-24T22:47:49.206Z,8.46
2018-09-24T22:50:23.609Z,8.45
2018-09-24T22:52:57.357Z,8.45
2018-09-24T22:55:31.445Z,8.45
2018-09-24T22:58:06.266Z,8.45
2018-09-24T23:00:39.643Z,8.45
2018-09-24T23:03:13.630Z,8.45
2018-09-24T23:05:46.948Z,8.44
2018-09-24T23:08:21.347Z,8.46
2018-09-24T23:10:54.819Z,8.47
2018-09-24T23:13:29.399Z,8.45
2018-09-24T23:16:03.064Z,8.45
2018-09-24T23:18:37.333Z,8.45
2018-09-24T23:21:10.801Z,8.44
2018-09-24T23:23:44.778Z,8.46
2018-09-24T23:26:18.807Z,8.47
2018-09-24T23:28:52.778Z,8.44
2018-09-24T23:31:27.601Z,8.41
2018-09-24T23:34:01.625Z,8.39
2018-09-24T23:36:35.419Z,8.38
2018-09-24T23:39:08.789Z,8.38
2018-09-24T23:41:43.224Z,8.37
2018-09-24T23:44:16.979Z,8.36
2018-09-24T23:46:50.496Z,8.35
2018-09-24T23:49:25.082Z,8.33
2018-09-24T23:51:58.550Z,8.31
2018-09-24T23:54:32.627Z,8.32
2018-09-24T23:57:07.214Z,8.33
2018-09-24T23:59:41.229Z,8.32
